createdAt,value
2018-06-12T00:00:28.407Z,2.50
2018-06-12T00:01:28.402Z,2.70
2018-06-12T00:02:28.396Z,3.30
2018-06-12T00:03:28.391Z,2.70
2018-06-12T00:04:28.388Z,3.60
2018-06-12T00:05:28.383Z,2.50
2018-06-12T00:06:28.380Z,2.80
2018-06-12T00:07:28.373Z,2.80
2018-06-12T00:08:28.369Z,2.80
2018-06-12T00:09:28.363Z,2.70
2018-06-12T00:10:28.357Z,3.00
2018-06-12T00:11:28.353Z,3.20
2018-06-12T00:12:28.348Z,3.20
2018-06-12T00:13:28.343Z,3.30
2018-06-12T00:14:28.337Z,3.00
2018-06-12T00:15:28.334Z,3.20
2018-06-12T00:16:28.328Z,3.40
2018-06-12T00:17:28.325Z,3.90
2018-06-12T00:18:28.327Z,3.00
2018-06-12T00:19:28.312Z,3.90
2018-06-12T00:20:28.308Z,3.70
2018-06-12T00:21:28.302Z,3.20
2018-06-12T00:22:28.296Z,2.80
2018-06-12T00:23:28.291Z,3.20
2018-06-12T00:24:28.286Z,3.00
2018-06-12T00:25:28.281Z,3.70
2018-06-12T00:26:28.277Z,3.80
2018-06-12T00:27:28.275Z,3.70
2018-06-12T00:28:28.265Z,4.90
2018-06-12T00:29:28.260Z,3.30
2018-06-12T00:30:28.254Z,3.50
2018-06-12T00:31:28.249Z,3.50
2018-06-12T00:32:28.244Z,3.90
2018-06-12T00:33:28.238Z,4.60
2018-06-12T00:34:28.237Z,3.80
2018-06-12T00:35:28.227Z,3.70
2018-06-12T00:36:28.223Z,3.50
2018-06-12T00:37:28.216Z,4.00
2018-06-12T00:38:28.211Z,3.30
2018-06-12T00:39:28.205Z,3.10
2018-06-12T00:40:28.199Z,3.40
2018-06-12T00:41:28.205Z,3.00
2018-06-12T00:42:28.188Z,2.80
2018-06-12T00:43:28.182Z,3.40
2018-06-12T00:44:28.178Z,3.70
2018-06-12T00:45:28.172Z,3.70
2018-06-12T00:46:28.165Z,3.70
2018-06-12T00:47:28.160Z,3.50
2018-06-12T00:48:28.160Z,4.00
2018-06-12T00:49:28.149Z,3.40
2018-06-12T00:50:28.143Z,3.00
2018-06-12T00:51:28.339Z,3.80
2018-06-12T00:52:28.132Z,3.40
2018-06-12T00:53:28.128Z,3.20
2018-06-12T00:54:28.120Z,3.50
2018-06-12T00:55:28.115Z,3.20
2018-06-12T00:56:28.110Z,4.00
2018-06-12T00:57:28.105Z,3.60
2018-06-12T00:58:28.099Z,4.10
2018-06-12T00:59:28.093Z,4.20
2018-06-12T01:00:28.088Z,3.20
2018-06-12T01:01:28.082Z,3.90
2018-06-12T01:02:28.076Z,3.90
2018-06-12T01:03:28.073Z,3.70
2018-06-12T01:04:28.065Z,3.80
2018-06-12T01:05:28.060Z,3.60
2018-06-12T01:06:28.053Z,3.80
2018-06-12T01:07:28.048Z,4.00
2018-06-12T01:08:28.044Z,3.80
2018-06-12T01:09:28.037Z,4.20
2018-06-12T01:10:28.031Z,3.70
2018-06-12T01:11:28.026Z,4.10
2018-06-12T01:12:28.025Z,4.10
2018-06-12T01:13:28.015Z,4.10
2018-06-12T01:14:28.010Z,4.20
2018-06-12T01:15:28.004Z,3.70
2018-06-12T01:16:27.997Z,4.00
2018-06-12T01:17:27.994Z,4.30
2018-06-12T01:18:27.989Z,3.40
2018-06-12T01:19:27.985Z,4.90
2018-06-12T01:20:27.975Z,5.00
2018-06-12T01:21:27.969Z,4.30
2018-06-12T01:22:27.963Z,4.10
2018-06-12T01:23:27.958Z,4.00
2018-06-12T01:24:27.953Z,3.80
2018-06-12T01:25:27.947Z,4.70
2018-06-12T01:26:27.985Z,4.20
2018-06-12T01:27:27.935Z,4.20
2018-06-12T01:28:27.929Z,4.00
2018-06-12T01:29:27.923Z,3.80
2018-06-12T01:30:27.917Z,3.90
2018-06-12T01:31:27.911Z,4.40
2018-06-12T01:32:27.909Z,5.00
2018-06-12T01:33:28.102Z,4.40
2018-06-12T01:34:27.894Z,4.60
2018-06-12T01:35:27.889Z,4.80
2018-06-12T01:36:27.881Z,4.90
2018-06-12T01:37:27.878Z,4.60
2018-06-12T01:38:27.869Z,4.00
2018-06-12T01:39:27.863Z,4.70
2018-06-12T01:40:27.858Z,3.60
2018-06-12T01:41:27.854Z,3.90
2018-06-12T01:42:27.849Z,3.80
2018-06-12T01:43:27.839Z,4.70
2018-06-12T01:44:27.834Z,4.40
2018-06-12T01:45:27.828Z,4.60
2018-06-12T01:46:27.822Z,4.30
2018-06-12T01:47:27.819Z,4.10
2018-06-12T01:48:27.810Z,4.70
2018-06-12T01:49:27.807Z,3.80
2018-06-12T01:50:27.798Z,4.60
2018-06-12T01:51:27.799Z,4.40
2018-06-12T01:52:27.788Z,4.50
2018-06-12T01:53:27.781Z,4.50
2018-06-12T01:54:27.775Z,5.20
2018-06-12T01:55:27.772Z,4.10
2018-06-12T01:56:27.763Z,4.90
2018-06-12T01:57:27.757Z,3.70
2018-06-12T01:58:27.753Z,4.60
2018-06-12T01:59:27.745Z,4.00
2018-06-12T02:00:27.738Z,3.70
2018-06-12T02:01:27.736Z,4.60
2018-06-12T02:02:27.730Z,4.50
2018-06-12T02:03:27.720Z,4.80
2018-06-12T02:04:27.715Z,3.70
2018-06-12T02:05:27.709Z,4.40
2018-06-12T02:06:27.702Z,3.90
2018-06-12T02:07:27.696Z,4.20
2018-06-12T02:08:27.691Z,4.50
2018-06-12T02:09:27.685Z,4.40
2018-06-12T02:10:27.678Z,3.20
2018-06-12T02:11:27.672Z,3.80
2018-06-12T02:12:27.667Z,4.00
2018-06-12T02:13:27.666Z,4.50
2018-06-12T02:14:27.664Z,4.50
2018-06-12T02:15:27.649Z,5.40
2018-06-12T02:16:27.648Z,5.00
2018-06-12T02:17:27.638Z,4.50
2018-06-12T02:18:27.630Z,4.60
2018-06-12T02:19:27.625Z,3.70
2018-06-12T02:20:27.619Z,4.50
2018-06-12T02:21:27.613Z,4.40
2018-06-12T02:22:27.609Z,4.60
2018-06-12T02:23:27.601Z,4.40
2018-06-12T02:24:27.595Z,4.40
2018-06-12T02:25:27.590Z,4.80
2018-06-12T02:26:27.583Z,4.90
2018-06-12T02:27:27.577Z,4.10
2018-06-12T02:28:27.576Z,4.20
2018-06-12T02:29:27.569Z,4.50
2018-06-12T02:30:27.559Z,5.10
2018-06-12T02:31:27.554Z,4.70
2018-06-12T02:32:27.547Z,4.00
2018-06-12T02:33:27.541Z,4.70
2018-06-12T02:34:27.543Z,5.50
2018-06-12T02:35:27.528Z,5.30
2018-06-12T02:36:27.522Z,3.60
2018-06-12T02:37:27.517Z,4.70
2018-06-12T02:38:27.510Z,4.10
2018-06-12T02:39:27.504Z,5.80
2018-06-12T02:40:27.498Z,3.90
2018-06-12T02:41:27.493Z,4.80
2018-06-12T02:42:27.486Z,4.00
2018-06-12T02:43:27.480Z,4.10
2018-06-12T02:44:27.494Z,4.20
2018-06-12T02:45:27.474Z,4.40
2018-06-12T02:46:27.463Z,4.80
2018-06-12T02:47:27.457Z,4.60
2018-06-12T02:48:27.457Z,4.70
2018-06-12T02:49:27.447Z,5.10
2018-06-12T02:50:27.440Z,4.90
2018-06-12T02:51:27.433Z,5.50
2018-06-12T02:52:27.428Z,5.50
2018-06-12T02:53:27.422Z,4.30
2018-06-12T02:54:27.415Z,4.40
2018-06-12T02:55:27.411Z,5.20
2018-06-12T02:56:27.403Z,4.60
2018-06-12T02:57:27.398Z,5.10
2018-06-12T02:58:27.390Z,4.80
2018-06-12T02:59:27.793Z,5.00
2018-06-12T03:00:27.379Z,6.20
2018-06-12T03:01:27.373Z,5.00
2018-06-12T03:02:27.366Z,4.70
2018-06-12T03:03:27.360Z,4.80
2018-06-12T03:04:27.356Z,5.40
2018-06-12T03:05:27.349Z,5.30
2018-06-12T03:06:27.343Z,4.90
2018-06-12T03:07:27.342Z,5.50
2018-06-12T03:08:27.334Z,5.40
2018-06-12T03:09:27.326Z,5.80
2018-06-12T03:10:27.321Z,5.60
2018-06-12T03:11:27.317Z,5.30
2018-06-12T03:12:27.306Z,5.00
2018-06-12T03:13:27.305Z,5.10
2018-06-12T03:14:27.294Z,6.00
2018-06-12T03:15:27.289Z,5.20
2018-06-12T03:16:27.283Z,5.40
2018-06-12T03:17:27.282Z,4.90
2018-06-12T03:18:27.270Z,5.10
2018-06-12T03:19:27.265Z,5.80
2018-06-12T03:20:27.260Z,5.30
2018-06-12T03:21:27.252Z,5.60
2018-06-12T03:22:27.245Z,5.80
2018-06-12T03:23:27.244Z,5.80
2018-06-12T03:24:27.234Z,5.00
2018-06-12T03:25:27.228Z,5.10
2018-06-12T03:26:27.223Z,5.20
2018-06-12T03:27:27.215Z,5.20
2018-06-12T03:28:27.413Z,5.10
2018-06-12T03:29:27.203Z,5.70
2018-06-12T03:30:27.196Z,5.50
2018-06-12T03:31:27.190Z,5.20
2018-06-12T03:32:27.184Z,5.30
2018-06-12T03:33:27.178Z,6.60
2018-06-12T03:34:27.171Z,5.60
2018-06-12T03:35:27.170Z,4.50
2018-06-12T03:36:27.163Z,5.60
2018-06-12T03:37:27.156Z,5.60
2018-06-12T03:38:27.149Z,5.40
2018-06-12T03:39:27.139Z,5.10
2018-06-12T03:40:27.136Z,5.70
2018-06-12T03:41:27.127Z,5.80
2018-06-12T03:42:27.124Z,6.50
2018-06-12T03:43:27.114Z,6.00
2018-06-12T03:44:27.110Z,6.60
2018-06-12T03:45:27.102Z,5.30
2018-06-12T03:46:27.095Z,5.40
2018-06-12T03:47:27.093Z,6.40
2018-06-12T03:48:27.082Z,7.10
2018-06-12T03:49:27.076Z,6.80
2018-06-12T03:50:27.072Z,5.60
2018-06-12T03:51:27.065Z,5.90
2018-06-12T03:52:27.058Z,5.60
2018-06-12T03:53:27.053Z,5.50
2018-06-12T03:54:27.045Z,5.50
2018-06-12T03:55:27.044Z,6.50
2018-06-12T03:56:27.033Z,6.40
2018-06-12T03:57:27.042Z,7.30
2018-06-12T03:58:27.020Z,5.60
2018-06-12T03:59:27.012Z,5.40
2018-06-12T04:00:27.008Z,6.80
2018-06-12T04:01:27.002Z,6.60
2018-06-12T04:02:26.993Z,6.30
2018-06-12T04:03:26.989Z,5.30
2018-06-12T04:04:26.981Z,5.80
2018-06-12T04:05:26.975Z,5.40
2018-06-12T04:06:26.968Z,6.70
2018-06-12T04:07:26.962Z,5.90
2018-06-12T04:08:26.956Z,5.90
2018-06-12T04:09:26.996Z,6.50
2018-06-12T04:10:27.148Z,6.60
2018-06-12T04:11:26.937Z,5.80
2018-06-12T04:12:26.931Z,6.90
2018-06-12T04:13:26.925Z,6.50
2018-06-12T04:14:26.917Z,6.20
2018-06-12T04:15:26.920Z,5.90
2018-06-12T04:16:26.909Z,6.30
2018-06-12T04:17:26.900Z,6.80
2018-06-12T04:18:26.896Z,6.30
2018-06-12T04:19:26.889Z,6.00
2018-06-12T04:20:26.924Z,5.40
2018-06-12T04:21:26.874Z,6.10
2018-06-12T04:22:26.870Z,5.80
2018-06-12T04:23:26.864Z,4.90
2018-06-12T04:24:26.855Z,5.50
2018-06-12T04:25:26.849Z,6.50
2018-06-12T04:26:26.842Z,5.40
2018-06-12T04:27:26.841Z,5.50
2018-06-12T04:28:27.032Z,6.50
2018-06-12T04:29:26.825Z,5.60
2018-06-12T04:30:26.819Z,6.50
2018-06-12T04:31:26.812Z,5.50
2018-06-12T04:32:26.806Z,6.40
2018-06-12T04:33:26.804Z,6.50
2018-06-12T04:34:26.793Z,5.80
2018-06-12T04:35:26.787Z,6.10
2018-06-12T04:36:26.785Z,5.70
2018-06-12T04:37:26.780Z,6.40
2018-06-12T04:38:26.768Z,7.00
2018-06-12T04:39:26.762Z,6.20
2018-06-12T04:40:26.760Z,6.10
2018-06-12T04:41:26.751Z,6.20
2018-06-12T04:42:26.744Z,6.60
2018-06-12T04:43:26.750Z,6.40
2018-06-12T04:44:26.733Z,6.50
2018-06-12T04:45:26.726Z,6.40
2018-06-12T04:46:26.722Z,5.90
2018-06-12T04:47:26.714Z,6.00
2018-06-12T04:48:26.713Z,5.60
2018-06-12T04:49:26.702Z,5.80
2018-06-12T04:50:26.703Z,5.30
2018-06-12T04:51:26.689Z,5.80
2018-06-12T04:52:26.687Z,5.30
2018-06-12T04:53:26.678Z,6.00
2018-06-12T04:54:26.675Z,5.30
2018-06-12T04:55:26.670Z,5.70
2018-06-12T04:56:26.659Z,5.60
2018-06-12T04:57:26.655Z,6.60
2018-06-12T04:58:26.646Z,5.70
2018-06-12T04:59:26.643Z,6.00
2018-06-12T05:00:26.635Z,6.40
2018-06-12T05:01:26.629Z,6.10
2018-06-12T05:02:26.624Z,5.80
2018-06-12T05:03:26.618Z,5.40
2018-06-12T05:04:26.614Z,7.40
2018-06-12T05:05:26.606Z,5.50
2018-06-12T05:06:26.601Z,6.10
2018-06-12T05:07:26.597Z,6.10
2018-06-12T05:08:26.595Z,5.70
2018-06-12T05:09:26.590Z,5.70
2018-06-12T05:10:26.811Z,5.60
2018-06-12T05:11:26.777Z,5.80
2018-06-12T05:12:26.565Z,5.50
2018-06-12T05:13:26.559Z,6.20
2018-06-12T05:14:26.558Z,7.30
2018-06-12T05:15:26.749Z,6.00
2018-06-12T05:16:26.541Z,5.80
2018-06-12T05:17:26.536Z,5.90
2018-06-12T05:18:26.531Z,6.10
2018-06-12T05:19:26.524Z,5.90
2018-06-12T05:20:26.518Z,5.80
2018-06-12T05:21:26.513Z,5.90
2018-06-12T05:22:26.507Z,5.90
2018-06-12T05:23:26.507Z,5.70
2018-06-12T05:24:26.495Z,6.10
2018-06-12T05:25:26.503Z,6.00
2018-06-12T05:26:26.488Z,7.40
2018-06-12T05:27:26.478Z,6.40
2018-06-12T05:28:26.477Z,5.80
2018-06-12T05:29:26.469Z,6.50
2018-06-12T05:30:26.461Z,5.90
2018-06-12T05:31:26.455Z,6.40
2018-06-12T05:32:26.450Z,6.10
2018-06-12T05:33:26.444Z,6.30
2018-06-12T05:34:26.446Z,6.10
2018-06-12T05:35:26.433Z,5.60
2018-06-12T05:36:26.428Z,6.00
2018-06-12T05:37:26.421Z,5.70
2018-06-12T05:38:26.415Z,6.50
2018-06-12T05:39:26.411Z,5.70
2018-06-12T05:41:26.405Z,6.00
2018-06-12T05:42:26.396Z,6.50
2018-06-12T05:43:26.387Z,5.50
2018-06-12T05:44:26.381Z,6.20
2018-06-12T05:45:26.376Z,6.80
2018-06-12T05:46:26.370Z,7.10
2018-06-12T05:47:26.369Z,7.70
2018-06-12T05:48:26.360Z,6.60
2018-06-12T05:49:26.354Z,6.00
2018-06-12T05:50:26.347Z,7.90
2018-06-12T05:51:26.343Z,7.00
2018-06-12T05:52:26.336Z,6.30
2018-06-12T05:53:26.332Z,5.90
2018-06-12T05:54:26.326Z,5.80
2018-06-12T05:55:26.323Z,6.20
2018-06-12T05:56:26.318Z,6.80
2018-06-12T05:57:26.317Z,5.80
2018-06-12T05:58:26.307Z,6.40
2018-06-12T05:59:26.297Z,6.90
2018-06-12T06:00:26.292Z,6.50
2018-06-12T06:01:26.287Z,6.10
2018-06-12T06:02:26.281Z,5.70
2018-06-12T06:03:26.280Z,6.50
2018-06-12T06:04:26.271Z,6.30
2018-06-12T06:05:26.271Z,6.20
2018-06-12T06:06:26.262Z,6.50
2018-06-12T06:07:26.255Z,6.00
2018-06-12T06:08:26.250Z,6.40
2018-06-12T06:09:26.244Z,6.40
2018-06-12T06:10:26.238Z,6.30
2018-06-12T06:11:26.237Z,6.00
2018-06-12T06:12:26.231Z,6.90
2018-06-12T06:13:26.225Z,6.50
2018-06-12T06:14:26.218Z,5.90
2018-06-12T06:15:26.214Z,5.60
2018-06-12T06:16:26.213Z,7.00
2018-06-12T06:17:26.207Z,7.00
2018-06-12T06:18:26.200Z,7.20
2018-06-12T06:19:26.191Z,5.70
2018-06-12T06:20:26.185Z,6.10
2018-06-12T06:21:26.180Z,6.70
2018-06-12T06:22:26.198Z,7.00
2018-06-12T06:23:26.172Z,7.90
2018-06-12T06:24:26.366Z,6.80
2018-06-12T06:25:26.159Z,6.20
2018-06-12T06:26:26.153Z,7.90
2018-06-12T06:27:26.153Z,6.20
2018-06-12T06:28:26.145Z,7.20
2018-06-12T06:29:26.138Z,6.10
2018-06-12T06:30:26.133Z,7.80
2018-06-12T06:31:26.128Z,7.00
2018-06-12T06:32:26.127Z,7.00
2018-06-12T06:33:26.118Z,6.60
2018-06-12T06:34:26.115Z,6.80
2018-06-12T06:35:26.310Z,6.40
2018-06-12T06:36:26.103Z,6.30
2018-06-12T06:37:26.106Z,6.30
2018-06-12T06:38:26.092Z,5.60
2018-06-12T06:39:26.090Z,7.20
2018-06-12T06:40:26.083Z,6.80
2018-06-12T06:42:26.073Z,7.40
2018-06-12T06:43:26.070Z,6.40
2018-06-12T06:44:26.063Z,6.40
2018-06-12T06:45:26.063Z,5.80
2018-06-12T06:46:26.056Z,6.80
2018-06-12T06:47:26.050Z,6.90
2018-06-12T06:48:26.043Z,6.70
2018-06-12T06:49:26.038Z,6.70
2018-06-12T06:50:26.033Z,6.10
2018-06-12T06:51:26.029Z,6.60
2018-06-12T06:52:26.026Z,6.30
2018-06-12T06:53:26.019Z,7.10
2018-06-12T06:54:26.020Z,6.00
2018-06-12T06:55:26.212Z,6.60
2018-06-12T06:56:26.008Z,6.20
2018-06-12T06:57:26.004Z,6.40
2018-06-12T06:58:25.995Z,6.40
2018-06-12T06:59:25.992Z,7.50
2018-06-12T07:00:25.991Z,6.90
2018-06-12T07:01:26.184Z,7.50
2018-06-12T07:02:25.977Z,7.60
2018-06-12T07:03:25.972Z,6.80
2018-06-12T07:04:25.973Z,7.80
2018-06-12T07:05:25.968Z,7.80
2018-06-12T07:06:25.959Z,6.70
2018-06-12T07:07:25.954Z,7.10
2018-06-12T07:08:25.954Z,6.80
2018-06-12T07:09:25.947Z,6.20
2018-06-12T07:10:25.947Z,7.50
2018-06-12T07:11:25.937Z,7.50
2018-06-12T07:12:25.932Z,7.00
2018-06-12T07:13:25.929Z,7.80
2018-06-12T07:14:25.923Z,7.80
2018-06-12T07:15:25.926Z,7.20
2018-06-12T07:16:25.913Z,7.20
2018-06-12T07:17:25.909Z,7.10
2018-06-12T07:18:25.906Z,5.70
2018-06-12T07:19:25.901Z,7.10
2018-06-12T07:20:25.895Z,7.00
2018-06-12T07:21:25.891Z,6.90
2018-06-12T07:22:25.888Z,6.30
2018-06-12T07:23:25.882Z,6.90
2018-06-12T07:24:25.881Z,7.20
2018-06-12T07:25:25.878Z,8.00
2018-06-12T07:26:25.869Z,7.20
2018-06-12T07:27:25.864Z,6.50
2018-06-12T07:28:25.860Z,6.80
2018-06-12T07:29:25.856Z,7.20
2018-06-12T07:30:25.851Z,7.60
2018-06-12T07:31:25.846Z,7.20
2018-06-12T07:32:25.843Z,7.30
2018-06-12T07:33:25.838Z,8.70
2018-06-12T07:34:25.833Z,6.50
2018-06-12T07:35:25.830Z,6.80
2018-06-12T07:36:25.826Z,6.90
2018-06-12T07:37:25.839Z,7.70
2018-06-12T07:38:25.818Z,7.60
2018-06-12T07:39:25.813Z,7.30
2018-06-12T07:40:25.809Z,7.80
2018-06-12T07:41:25.807Z,6.50
2018-06-12T07:42:25.803Z,7.50
2018-06-12T07:43:25.845Z,8.70
2018-06-12T07:44:25.799Z,7.30
2018-06-12T07:45:25.793Z,7.80
2018-06-12T07:46:25.784Z,6.10
2018-06-12T07:47:25.780Z,7.70
2018-06-12T07:48:25.783Z,6.90
2018-06-12T07:49:25.776Z,6.90
2018-06-12T07:50:25.772Z,7.20
2018-06-12T07:51:25.767Z,7.90
2018-06-12T07:52:25.764Z,6.50
2018-06-12T07:53:25.756Z,7.60
2018-06-12T07:54:25.755Z,7.00
2018-06-12T07:55:25.750Z,7.50
2018-06-12T07:56:25.745Z,7.80
2018-06-12T07:57:25.742Z,5.90
2018-06-12T07:58:25.734Z,6.40
2018-06-12T07:59:25.733Z,6.80
2018-06-12T08:00:25.726Z,7.20
2018-06-12T08:01:25.729Z,7.30
2018-06-12T08:02:25.722Z,7.40
2018-06-12T08:03:25.716Z,7.00
2018-06-12T08:04:25.713Z,7.50
2018-06-12T08:05:25.710Z,7.40
2018-06-12T08:06:25.701Z,7.80
2018-06-12T08:07:25.697Z,6.20
2018-06-12T08:08:25.694Z,7.50
2018-06-12T08:09:25.690Z,6.40
2018-06-12T08:10:25.685Z,6.80
2018-06-12T08:11:25.681Z,7.50
2018-06-12T08:12:25.676Z,7.10
2018-06-12T08:13:25.673Z,6.70
2018-06-12T08:14:25.668Z,7.00
2018-06-12T08:15:25.669Z,6.80
2018-06-12T08:16:25.660Z,6.80
2018-06-12T08:17:25.657Z,7.00
2018-06-12T08:18:25.652Z,7.20
2018-06-12T08:19:25.648Z,6.30
2018-06-12T08:20:25.645Z,7.40
2018-06-12T08:21:25.650Z,7.30
2018-06-12T08:22:25.639Z,7.10
2018-06-12T08:23:25.636Z,6.70
2018-06-12T08:24:25.634Z,6.20
2018-06-12T08:25:25.626Z,6.10
2018-06-12T08:26:25.622Z,6.50
2018-06-12T08:27:25.618Z,6.50
2018-06-12T08:28:25.614Z,7.50
2018-06-12T08:29:25.612Z,6.30
2018-06-12T08:30:25.787Z,7.90
2018-06-12T08:31:25.603Z,5.80
2018-06-12T08:32:25.603Z,6.20
2018-06-12T08:33:25.603Z,6.90
2018-06-12T08:34:25.598Z,6.90
2018-06-12T08:35:25.589Z,6.70
2018-06-12T08:36:25.588Z,7.20
2018-06-12T08:37:25.583Z,8.00
2018-06-12T08:38:25.586Z,7.60
2018-06-12T08:39:25.576Z,6.60
2018-06-12T08:40:25.777Z,7.60
2018-06-12T08:41:25.570Z,6.80
2018-06-12T08:42:25.566Z,7.20
2018-06-12T08:43:25.564Z,7.10
2018-06-12T08:44:25.560Z,6.10
2018-06-12T08:45:25.559Z,6.80
2018-06-12T08:46:25.625Z,6.50
2018-06-12T08:47:25.555Z,7.00
2018-06-12T08:49:25.546Z,7.50
2018-06-12T08:50:25.543Z,7.80
2018-06-12T08:51:25.544Z,7.50
2018-06-12T08:52:25.538Z,8.10
2018-06-12T08:53:25.538Z,6.50
2018-06-12T08:54:25.530Z,7.20
2018-06-12T08:55:25.527Z,7.20
2018-06-12T08:56:25.527Z,7.10
2018-06-12T08:57:25.522Z,7.10
2018-06-12T08:58:25.519Z,7.40
2018-06-12T08:59:25.518Z,7.10
2018-06-12T09:00:25.513Z,6.80
2018-06-12T09:01:25.512Z,6.80
2018-06-12T09:02:25.505Z,7.40
2018-06-12T09:03:25.502Z,6.80
2018-06-12T09:04:25.499Z,6.60
2018-06-12T09:05:25.499Z,7.10
2018-06-12T09:06:25.492Z,7.70
2018-06-12T09:07:25.489Z,7.60
2018-06-12T09:08:25.486Z,7.20
2018-06-12T09:09:25.482Z,8.00
2018-06-12T09:10:25.479Z,6.90
2018-06-12T09:11:25.477Z,8.20
2018-06-12T09:12:25.474Z,8.20
2018-06-12T09:13:25.478Z,7.80
2018-06-12T09:14:25.466Z,8.40
2018-06-12T09:15:25.464Z,6.70
2018-06-12T09:16:25.465Z,8.10
2018-06-12T09:17:25.456Z,8.10
2018-06-12T09:18:25.455Z,6.60
2018-06-12T09:19:25.449Z,7.00
2018-06-12T09:20:25.445Z,7.90
2018-06-12T09:21:25.445Z,7.20
2018-06-12T09:22:25.438Z,6.50
2018-06-12T09:23:25.439Z,6.90
2018-06-12T09:24:25.436Z,6.80
2018-06-12T09:25:25.428Z,7.20
2018-06-12T09:26:25.424Z,7.30
2018-06-12T09:27:25.421Z,7.20
2018-06-12T09:28:25.424Z,6.60
2018-06-12T09:29:25.414Z,7.30
2018-06-12T09:30:25.410Z,7.10
2018-06-12T09:31:25.414Z,6.60
2018-06-12T09:32:25.406Z,6.10
2018-06-12T09:33:25.401Z,6.10
2018-06-12T09:34:25.401Z,7.70
2018-06-12T09:35:25.399Z,6.00
2018-06-12T09:36:25.391Z,6.70
2018-06-12T09:37:25.391Z,6.20
2018-06-12T09:38:25.388Z,6.10
2018-06-12T09:39:25.381Z,6.50
2018-06-12T09:40:25.380Z,7.10
2018-06-12T09:41:25.384Z,7.30
2018-06-12T09:42:25.378Z,7.10
2018-06-12T09:43:25.377Z,6.10
2018-06-12T09:44:25.370Z,5.80
2018-06-12T09:45:25.364Z,6.30
2018-06-12T09:46:25.364Z,6.30
2018-06-12T09:47:25.359Z,6.50
2018-06-12T09:48:25.359Z,5.40
2018-06-12T09:49:25.356Z,5.60
2018-06-12T09:50:25.351Z,6.80
2018-06-12T09:51:25.347Z,5.60
2018-06-12T09:52:25.349Z,5.20
2018-06-12T09:53:25.341Z,6.70
2018-06-12T09:54:25.338Z,5.90
2018-06-12T09:55:25.340Z,5.80
2018-06-12T09:56:25.332Z,5.30
2018-06-12T09:57:25.335Z,5.70
2018-06-12T09:58:25.326Z,6.10
2018-06-12T09:59:25.528Z,5.40
2018-06-12T10:00:25.325Z,5.30
2018-06-12T10:01:25.323Z,5.00
2018-06-12T10:02:25.317Z,5.60
2018-06-12T10:03:25.313Z,5.80
2018-06-12T10:04:25.313Z,4.80
2018-06-12T10:05:25.309Z,5.80
2018-06-12T10:06:25.305Z,5.00
2018-06-12T10:07:25.306Z,4.60
2018-06-12T10:08:25.304Z,5.50
2018-06-12T10:09:25.304Z,5.30
2018-06-12T10:11:25.296Z,4.70
2018-06-12T10:12:25.290Z,5.30
2018-06-12T10:13:25.289Z,6.20
2018-06-12T10:14:25.284Z,4.10
2018-06-12T10:15:25.282Z,5.20
2018-06-12T10:16:25.279Z,5.70
2018-06-12T10:17:25.277Z,5.00
2018-06-12T10:18:25.279Z,4.80
2018-06-12T10:19:25.271Z,6.00
2018-06-12T10:20:25.275Z,5.20
2018-06-12T10:21:25.272Z,5.20
2018-06-12T10:22:25.265Z,4.40
2018-06-12T10:23:25.263Z,5.80
2018-06-12T10:24:25.257Z,5.10
2018-06-12T10:25:25.254Z,5.60
2018-06-12T10:26:25.250Z,6.30
2018-06-12T10:27:25.247Z,5.60
2018-06-12T10:28:25.244Z,4.80
2018-06-12T10:29:25.241Z,5.40
2018-06-12T10:30:25.238Z,5.10
2018-06-12T10:31:25.238Z,5.60
2018-06-12T10:32:25.235Z,4.90
2018-06-12T10:33:25.230Z,4.90
2018-06-12T10:34:25.226Z,5.60
2018-06-12T10:35:25.219Z,5.00
2018-06-12T10:36:25.215Z,5.40
2018-06-12T10:37:25.256Z,5.20
2018-06-12T10:38:25.207Z,5.20
2018-06-12T10:39:25.206Z,5.40
2018-06-12T10:40:25.199Z,4.60
2018-06-12T10:41:25.195Z,5.00
2018-06-12T10:42:25.192Z,5.70
2018-06-12T10:43:25.189Z,5.60
2018-06-12T10:44:25.186Z,5.50
2018-06-12T10:45:25.179Z,5.40
2018-06-12T10:46:25.174Z,5.90
2018-06-12T10:47:25.172Z,5.70
2018-06-12T10:48:25.167Z,5.70
2018-06-12T10:49:25.166Z,5.60
2018-06-12T10:50:25.157Z,5.70
2018-06-12T10:51:25.152Z,5.00
2018-06-12T10:52:25.148Z,4.80
2018-06-12T10:53:25.148Z,4.90
2018-06-12T10:54:25.143Z,5.80
2018-06-12T10:56:25.176Z,4.70
2018-06-12T10:57:25.336Z,3.90
2018-06-12T10:58:25.125Z,4.10
2018-06-12T10:59:25.120Z,4.30
2018-06-12T11:00:25.113Z,4.50
2018-06-12T11:01:25.115Z,5.20
2018-06-12T11:02:25.111Z,4.50
2018-06-12T11:03:25.100Z,4.40
2018-06-12T11:04:25.095Z,5.20
2018-06-12T11:05:25.097Z,4.20
2018-06-12T11:06:25.089Z,6.10
2018-06-12T11:07:25.080Z,5.40
2018-06-12T11:08:25.076Z,4.30
2018-06-12T11:09:25.074Z,4.70
2018-06-12T11:10:25.067Z,5.70
2018-06-12T11:11:25.065Z,5.40
2018-06-12T11:12:25.059Z,5.20
2018-06-12T11:13:25.053Z,5.30
2018-06-12T11:14:25.048Z,5.70
2018-06-12T11:15:25.044Z,5.60
2018-06-12T11:16:25.042Z,5.40
2018-06-12T11:17:25.034Z,4.80
2018-06-12T11:18:25.030Z,5.40
2018-06-12T11:19:25.024Z,5.60
2018-06-12T11:20:25.019Z,4.90
2018-06-12T11:21:25.015Z,5.10
2018-06-12T11:22:25.009Z,5.30
2018-06-12T11:23:25.007Z,5.20
2018-06-12T11:24:25.000Z,6.10
2018-06-12T11:25:24.995Z,5.30
2018-06-12T11:26:24.994Z,5.60
2018-06-12T11:27:24.996Z,5.60
2018-06-12T11:28:24.980Z,5.40
2018-06-12T11:29:24.975Z,4.80
2018-06-12T11:30:24.972Z,5.30
2018-06-12T11:31:24.965Z,5.10
2018-06-12T11:32:24.963Z,6.10
2018-06-12T11:33:24.959Z,5.10
2018-06-12T11:34:24.950Z,4.00
2018-06-12T11:35:24.950Z,4.80
2018-06-12T11:36:24.946Z,4.90
2018-06-12T11:37:24.937Z,5.50
2018-06-12T11:38:24.931Z,6.40
2018-06-12T11:39:24.927Z,4.70
2018-06-12T11:40:24.923Z,4.50
2018-06-12T11:41:24.918Z,4.30
2018-06-12T11:42:24.916Z,5.80
2018-06-12T11:43:24.910Z,4.50
2018-06-12T11:44:24.906Z,4.70
2018-06-12T11:45:24.901Z,5.40
2018-06-12T11:46:24.897Z,4.70
2018-06-12T11:47:24.895Z,4.70
2018-06-12T11:48:24.889Z,5.00
2018-06-12T11:49:24.884Z,4.90
2018-06-12T11:50:24.879Z,5.00
2018-06-12T11:51:24.874Z,5.00
2018-06-12T11:52:24.871Z,4.50
2018-06-12T11:53:24.870Z,5.30
2018-06-12T11:54:24.861Z,5.40
2018-06-12T11:55:24.861Z,5.50
2018-06-12T11:56:24.854Z,5.10
2018-06-12T11:57:24.854Z,4.80
2018-06-12T11:58:24.844Z,4.30
2018-06-12T11:59:24.842Z,5.00
2018-06-12T12:00:24.835Z,5.00
2018-06-12T12:01:24.831Z,5.20
2018-06-12T12:02:24.826Z,4.80
2018-06-12T12:03:24.823Z,4.80
2018-06-12T12:04:24.821Z,4.10
2018-06-12T12:05:24.820Z,4.50
2018-06-12T12:06:24.808Z,4.20
2018-06-12T12:07:24.804Z,5.30
2018-06-12T12:08:24.800Z,4.50
2018-06-12T12:09:24.796Z,4.30
2018-06-12T12:10:24.790Z,5.40
2018-06-12T12:11:24.790Z,4.50
2018-06-12T12:12:24.792Z,4.60
2018-06-12T12:13:24.782Z,4.10
2018-06-12T12:14:24.781Z,4.90
2018-06-12T12:15:24.769Z,4.00
2018-06-12T12:16:24.770Z,4.60
2018-06-12T12:17:24.760Z,4.20
2018-06-12T12:18:24.754Z,4.00
2018-06-12T12:19:24.755Z,4.60
2018-06-12T12:20:24.950Z,4.90
2018-06-12T12:21:24.746Z,4.60
2018-06-12T12:22:24.748Z,4.30
2018-06-12T12:23:24.781Z,4.50
2018-06-12T12:24:24.727Z,4.50
2018-06-12T12:25:24.724Z,4.80
2018-06-12T12:26:24.719Z,4.90
2018-06-12T12:27:24.714Z,4.60
2018-06-12T12:28:24.709Z,3.70
2018-06-12T12:29:24.705Z,4.50
2018-06-12T12:30:24.701Z,5.90
2018-06-12T12:31:24.696Z,4.50
2018-06-12T12:32:24.691Z,4.90
2018-06-12T12:33:24.689Z,5.00
2018-06-12T12:34:24.681Z,4.40
2018-06-12T12:35:24.677Z,4.00
2018-06-12T12:36:24.673Z,4.10
2018-06-12T12:37:24.673Z,4.60
2018-06-12T12:38:24.663Z,3.90
2018-06-12T12:39:24.660Z,3.90
2018-06-12T12:40:24.655Z,4.00
2018-06-12T12:41:24.650Z,3.70
2018-06-12T12:42:24.645Z,4.30
2018-06-12T12:43:24.645Z,5.10
2018-06-12T12:44:24.639Z,4.90
2018-06-12T12:45:24.632Z,4.90
2018-06-12T12:46:24.626Z,4.60
2018-06-12T12:47:24.827Z,4.00
2018-06-12T12:48:24.639Z,3.60
2018-06-12T12:49:24.614Z,4.30
2018-06-12T12:50:24.609Z,4.30
2018-06-12T12:51:24.609Z,3.60
2018-06-12T12:52:24.601Z,5.50
2018-06-12T12:53:24.597Z,4.80
2018-06-12T12:54:24.594Z,4.90
2018-06-12T12:55:24.590Z,4.00
2018-06-12T12:56:24.583Z,4.00
2018-06-12T12:57:24.579Z,4.70
2018-06-12T12:58:24.574Z,4.80
2018-06-12T12:59:24.571Z,4.50
2018-06-12T13:00:24.574Z,4.30
2018-06-12T13:01:24.774Z,4.30
2018-06-12T13:02:24.564Z,4.40
2018-06-12T13:03:24.556Z,4.30
2018-06-12T13:04:24.557Z,4.30
2018-06-12T13:05:24.550Z,3.90
2018-06-12T13:06:24.546Z,4.70
2018-06-12T13:07:24.548Z,4.70
2018-06-12T13:08:24.548Z,5.20
2018-06-12T13:09:24.538Z,5.30
2018-06-12T13:10:24.534Z,6.20
2018-06-12T13:11:24.533Z,5.50
2018-06-12T13:12:24.529Z,5.60
2018-06-12T13:13:24.525Z,6.40
2018-06-12T13:14:24.520Z,5.30
2018-06-12T13:15:24.523Z,5.00
2018-06-12T13:16:24.518Z,5.80
2018-06-12T13:17:24.511Z,4.90
2018-06-12T13:18:24.508Z,5.30
2018-06-12T13:19:24.505Z,5.80
2018-06-12T13:20:24.502Z,5.10
2018-06-12T13:21:24.498Z,5.50
2018-06-12T13:22:24.495Z,4.90
2018-06-12T13:23:24.492Z,5.00